Time;durP1;ratioP1;P1;durP2;ratioP2;P2;SDS_P1;SDS_P2;PMS_P1;PMS_P2;Temp;Humidity;BMP_temperature;BMP_pressure;BME280_temperature;BME280_humidity;BME280_pressure;Samples;Min_cycle;Max_cycle;Signal;HPM_P1;HPM_P2
2021/11/10 00:00:52;;;;;;;63.87;34.98;;;;;;;1.46;87.60;102341.34;1639486;86;26342;-83
2021/11/10 00:03:20;;;;;;;64.05;35.45;;;;;;;1.43;87.56;102338.41;1619069;86;27387;-83
2021/11/10 00:05:46;;;;;;;60.48;35.10;;;;;;;1.45;87.66;102340.98;1657909;85;25825;-83
2021/11/10 00:08:14;;;;;;;60.70;34.58;;;;;;;1.45;87.71;102338.34;1632388;86;25402;-83
2021/11/10 00:10:41;;;;;;;60.08;34.53;;;;;;;1.45;87.63;102335.70;1617859;85;26550;-83
2021/11/10 00:13:27;;;;;;;61.30;34.92;;;;;;;1.44;87.61;102336.62;1638930;85;25882;-83
2021/11/10 00:15:40;;;;;;;58.98;34.23;;;;;;;1.43;87.60;102330.48;1655135;85;27560;-83
2021/11/10 00:18:07;;;;;;;55.50;33.18;;;;;;;1.39;87.62;102318.39;1655021;86;25912;-83
2021/11/10 00:20:34;;;;;;;58.73;34.50;;;;;;;1.39;87.74;102316.25;1616870;85;25830;-83
2021/11/10 00:23:01;;;;;;;62.73;35.55;;;;;;;1.38;87.76;102312.75;1618380;86;25716;-83
2021/11/10 00:25:28;;;;;;;58.85;32.70;;;;;;;1.37;87.75;102310.17;1662672;85;25932;-83
2021/11/10 00:27:55;;;;;;;61.30;35.48;;;;;;;1.37;87.85;102308.85;1654569;85;27569;-83
2021/11/10 00:30:22;;;;;;;58.23;33.80;;;;;;;1.36;87.92;102311.13;1655225;85;25924;-84
2021/11/10 00:32:49;;;;;;;65.28;34.83;;;;;;;1.33;88.01;102306.86;1654606;84;25957;-83
2021/11/10 00:35:16;;;;;;;60.58;34.45;;;;;;;1.32;88.08;102305.64;1652700;85;25907;-83
2021/11/10 00:37:44;;;;;;;60.75;35.17;;;;;;;1.32;88.11;102299.90;1651426;85;26037;-83
2021/11/10 00:40:11;;;;;;;64.03;37.63;;;;;;;1.32;88.16;102297.72;1632375;86;27615;-82
2021/11/10 00:42:39;;;;;;;69.07;34.35;;;;;;;1.32;88.22;102295.08;1639273;86;25941;-83
2021/11/10 00:45:07;;;;;;;61.48;34.75;;;;;;;1.32;88.33;102294.62;1666623;85;25950;-83
2021/11/10 00:47:35;;;;;;;68.12;39.48;;;;;;;1.33;88.20;102284.89;1660970;86;26040;-82
2021/11/10 00:50:03;;;;;;;68.60;38.42;;;;;;;1.30;88.21;102287.26;1635356;86;26191;-83
2021/11/10 00:52:31;;;;;;;70.75;40.65;;;;;;;1.30;88.27;102281.98;1612556;86;27389;-83
2021/11/10 00:54:58;;;;;;;71.55;40.35;;;;;;;1.32;88.32;102280.10;1633387;86;26674;-83
2021/11/10 00:57:26;;;;;;;71.45;39.50;;;;;;;1.31;88.39;102274.42;1641479;85;25931;-83
2021/11/10 00:59:53;;;;;;;73.85;39.50;;;;;;;1.33;88.50;102276.97;1640012;85;25874;-83
2021/11/10 01:02:21;;;;;;;72.22;40.40;;;;;;;1.33;88.48;102280.47;1603774;85;25911;-83
2021/11/10 01:04:48;;;;;;;68.35;39.23;;;;;;;1.33;88.52;102275.19;1665090;85;27517;-83
2021/11/10 01:07:17;;;;;;;66.80;39.10;;;;;;;1.35;88.55;102282.55;1658805;86;26543;-83
2021/11/10 01:09:46;;;;;;;63.78;36.00;;;;;;;1.35;88.56;102278.59;1599938;85;25415;-83
2021/11/10 01:12:14;;;;;;;78.02;38.73;;;;;;;1.34;88.59;102275.58;1649933;85;25811;-82
2021/11/10 01:14:42;;;;;;;64.15;36.55;;;;;;;1.34;88.58;102276.05;1658952;86;26132;-83
2021/11/10 01:17:09;;;;;;;60.05;36.63;;;;;;;1.33;88.59;102274.33;1662595;85;27543;-83
2021/11/10 01:19:39;;;;;;;63.90;34.60;;;;;;;1.33;88.52;102275.19;1645839;86;25889;-83
2021/11/10 01:22:07;;;;;;;70.95;39.18;;;;;;;1.34;88.60;102278.22;1644505;85;33062;-83
2021/11/10 01:24:34;;;;;;;68.07;37.58;;;;;;;1.35;88.54;102277.73;1662798;85;25869;-83
2021/11/10 01:27:03;;;;;;;64.92;36.05;;;;;;;1.33;88.48;102284.42;1660782;85;25944;-83
2021/11/10 01:29:31;;;;;;;66.37;37.28;;;;;;;1.30;88.42;102287.26;1640870;86;27582;-83
2021/11/10 01:32:00;;;;;;;67.45;37.73;;;;;;;1.29;88.47;102297.87;1625727;85;26027;-83
2021/11/10 01:34:27;;;;;;;65.65;36.25;;;;;;;1.28;88.51;102301.47;1641213;86;25873;-83
2021/11/10 01:36:55;;;;;;;65.57;36.38;;;;;;;1.27;88.51;102305.03;1664343;85;25952;-82
2021/11/10 01:39:22;;;;;;;64.72;35.17;;;;;;;1.26;88.44;102308.14;1616545;86;25404;-82
2021/11/10 01:41:55;;;;;;;66.87;36.58;;;;;;;1.26;88.39;102294.94;1603774;86;27435;-83
2021/11/10 01:44:26;;;;;;;62.20;35.95;;;;;;;1.30;88.36;102298.28;1666894;85;25782;-82
2021/11/10 01:46:58;;;;;;;70.72;39.50;;;;;;;1.30;88.32;102295.17;1665993;85;25878;-83
2021/11/10 01:49:26;;;;;;;62.55;37.40;;;;;;;1.32;88.17;102289.34;1638872;86;25894;-83
2021/11/10 01:51:56;;;;;;;67.82;38.67;;;;;;;1.31;88.07;102292.90;1646238;85;26022;-83
2021/11/10 01:54:28;;;;;;;67.70;36.68;;;;;;;1.31;88.08;102294.22;1661168;85;28320;-83
2021/11/10 01:56:57;;;;;;;64.37;37.73;;;;;;;1.31;88.13;102299.50;1662410;85;26245;-83
2021/11/10 01:59:35;;;;;;;62.55;35.98;;;;;;;1.30;88.02;102291.22;1642440;85;25899;-83
2021/11/10 02:02:11;;;;;;;59.33;36.28;;;;;;;1.31;87.99;102294.22;1627722;85;26200;-83
2021/11/10 02:04:40;;;;;;;64.10;36.10;;;;;;;1.30;87.79;102287.72;1662692;85;25765;-83
2021/11/10 02:07:08;;;;;;;65.25;35.43;;;;;;;1.30;87.65;102289.04;1663831;86;32621;-84
2021/11/10 02:09:37;;;;;;;62.95;35.17;;;;;;;1.29;87.64;102283.36;1623736;86;25864;-83
2021/11/10 02:12:05;;;;;;;61.53;34.13;;;;;;;1.29;87.53;102280.72;1623056;85;25559;-83
2021/11/10 02:14:34;;;;;;;62.13;34.83;;;;;;;1.26;87.29;102276.46;1666519;85;25944;-83
2021/11/10 02:17:03;;;;;;;56.90;33.67;;;;;;;1.24;87.31;102282.30;1664116;85;26432;-83
2021/11/10 02:19:31;;;;;;;57.98;35.05;;;;;;;1.23;87.48;102275.80;1629962;85;28345;-83
2021/11/10 02:22:03;;;;;;;60.20;33.98;;;;;;;1.23;87.67;102267.87;1637073;84;26581;-83
2021/11/10 02:24:37;;;;;;;63.42;34.60;;;;;;;1.24;87.79;102262.50;1659815;85;26044;-83
2021/11/10 02:27:01;;;;;;;60.43;34.25;;;;;;;1.26;87.94;102267.72;1648596;86;25919;-83
2021/11/10 02:29:30;;;;;;;56.33;33.60;;;;;;;1.28;88.12;102265.34;1631974;85;25848;-83
2021/11/10 02:31:59;;;;;;;64.95;34.08;;;;;;;1.30;88.10;102267.92;1589305;85;27525;-83
2021/11/10 02:34:26;;;;;;;58.17;31.35;;;;;;;1.31;88.07;102271.78;1664202;85;26611;-83
2021/11/10 02:36:53;;;;;;;59.27;34.03;;;;;;;1.33;88.08;102269.05;1662246;86;25938;-83
2021/11/10 02:39:23;;;;;;;60.63;33.15;;;;;;;1.34;88.15;102269.45;1639828;86;25866;-82
2021/11/10 02:41:50;;;;;;;67.60;35.60;;;;;;;1.34;88.15;102262.38;1648327;85;25481;-83
2021/11/10 02:44:21;;;;;;;66.10;34.18;;;;;;;1.35;88.04;102261.42;1659371;85;27590;-83
2021/11/10 02:46:50;;;;;;;61.55;32.13;;;;;;;1.34;87.98;102265.02;1663523;85;26004;-82
2021/11/10 02:49:20;;;;;;;54.95;31.87;;;;;;;1.34;87.83;102258.89;1647631;85;25879;-83
2021/11/10 02:52:07;;;;;;;62.08;35.00;;;;;;;1.33;87.78;102256.70;1683688;84;26248;-83
2021/11/10 02:54:39;;;;;;;60.60;32.10;;;;;;;1.32;87.64;102248.88;1662678;85;25863;-83
2021/11/10 02:57:07;;;;;;;61.08;32.53;;;;;;;1.30;87.63;102245.02;1666453;85;28049;-83
2021/11/10 02:59:35;;;;;;;60.58;33.13;;;;;;;1.29;87.71;102245.09;1647567;85;25601;-83
2021/11/10 03:02:04;;;;;;;61.37;32.08;;;;;;;1.30;87.83;102237.56;1596751;86;25943;-83
2021/11/10 03:04:39;;;;;;;60.35;33.00;;;;;;;1.31;87.95;102230.01;1646804;86;25851;-83
2021/11/10 03:07:06;;;;;;;58.05;31.87;;;;;;;1.31;88.08;102229.55;1651365;86;25819;-83
2021/11/10 03:09:36;;;;;;;60.00;31.27;;;;;;;1.29;87.94;102229.25;1636338;86;28346;-83
2021/11/10 03:12:07;;;;;;;60.30;32.00;;;;;;;1.25;87.98;102225.09;1653986;85;25999;-83
2021/11/10 03:14:36;;;;;;;60.30;32.10;;;;;;;1.24;88.08;102229.50;1649820;85;25913;-83
2021/11/10 03:17:08;;;;;;;58.10;32.40;;;;;;;1.23;88.28;102227.83;1660884;86;26574;-82
2021/11/10 03:19:36;;;;;;;64.97;32.65;;;;;;;1.24;88.38;102230.00;1623511;85;25747;-83
2021/11/10 03:22:06;;;;;;;63.20;35.30;;;;;;;1.25;88.49;102227.72;1649844;85;27734;-83
2021/11/10 03:24:34;;;;;;;61.45;33.70;;;;;;;1.28;88.60;102226.24;1663613;86;25933;-83
2021/11/10 03:27:03;;;;;;;66.90;35.03;;;;;;;1.29;88.53;102230.56;1621629;85;26239;-83
2021/11/10 03:29:33;;;;;;;73.65;36.63;;;;;;;1.28;88.48;102231.03;1636823;85;27012;-83
2021/11/10 03:32:01;;;;;;;62.87;35.80;;;;;;;1.29;88.45;102235.84;1646645;86;25873;-83
2021/11/10 03:34:29;;;;;;;64.67;34.83;;;;;;;1.27;88.34;102230.66;1668365;85;27554;-83
2021/11/10 03:36:56;;;;;;;63.00;33.67;;;;;;;1.26;88.32;102235.55;1664029;85;25830;-82
2021/11/10 03:39:24;;;;;;;66.05;34.48;;;;;;;1.24;88.32;102230.83;1633101;86;25990;-82
2021/11/10 03:41:51;;;;;;;63.13;34.73;;;;;;;1.22;88.31;102227.92;1633750;85;26695;-83
2021/11/10 03:44:18;;;;;;;69.12;35.92;;;;;;;1.20;88.31;102230.63;1661217;85;26585;-83
2021/11/10 03:46:45;;;;;;;62.78;34.85;;;;;;;1.22;88.40;102239.30;1667614;85;28391;-82
2021/11/10 03:49:14;;;;;;;66.82;35.55;;;;;;;1.20;88.27;102225.80;1592719;86;25851;-83
2021/11/10 03:51:43;;;;;;;68.55;39.48;;;;;;;1.19;88.42;102224.13;1617128;86;25912;-83
2021/11/10 03:54:10;;;;;;;67.70;36.60;;;;;;;1.19;88.34;102218.38;1660279;85;26623;-83
2021/11/10 03:56:38;;;;;;;71.55;36.58;;;;;;;1.19;88.40;102224.13;1665210;85;25353;-83
2021/11/10 03:59:06;;;;;;;65.40;38.13;;;;;;;1.19;88.43;102224.98;1650189;85;27598;-83
2021/11/10 04:01:33;;;;;;;71.15;37.05;;;;;;;1.19;88.33;102220.16;1603730;85;26644;-83
2021/11/10 04:04:01;;;;;;;70.28;36.75;;;;;;;1.19;88.39;102224.13;1660782;85;25896;-82
2021/11/10 04:06:30;;;;;;;69.15;36.42;;;;;;;1.19;88.44;102222.80;1670176;85;26136;-83
2021/11/10 04:08:57;;;;;;;73.28;37.35;;;;;;;1.18;88.36;102214.02;1614310;86;26450;-82
2021/11/10 04:11:25;;;;;;;63.60;36.65;;;;;;;1.18;88.32;102216.66;1635163;86;27544;-83
2021/11/10 04:13:53;;;;;;;60.90;36.53;;;;;;;1.16;88.35;102212.41;1660547;85;25421;-83
2021/11/10 04:16:20;;;;;;;68.67;35.65;;;;;;;1.17;88.34;102211.48;1664819;85;25871;-83
2021/11/10 04:18:54;;;;;;;68.70;36.05;;;;;;;1.15;88.15;102206.77;1639306;85;26520;-82
2021/11/10 04:21:23;;;;;;;71.28;37.23;;;;;;;1.13;88.19;102197.62;1652477;85;26046;-83
2021/11/10 04:23:55;;;;;;;70.92;38.90;;;;;;;1.10;88.11;102191.19;1662460;85;27552;-83
2021/11/10 04:26:28;;;;;;;77.08;39.53;;;;;;;1.11;88.19;102199.47;1666545;85;54150;-83
2021/11/10 04:28:56;;;;;;;76.00;38.15;;;;;;;1.10;88.31;102192.51;1639182;86;25818;-83
2021/11/10 04:31:24;;;;;;;88.47;43.98;;;;;;;1.09;88.20;102184.69;1613757;86;26252;-83
2021/11/10 04:33:52;;;;;;;103.95;49.53;;;;;;;1.06;88.33;102188.81;1635553;86;25683;-83
2021/11/10 04:36:21;;;;;;;100.82;45.35;;;;;;;1.04;88.39;102180.98;1660197;86;27479;-83
2021/11/10 04:38:49;;;;;;;89.67;44.50;;;;;;;1.02;88.49;102181.55;1660329;86;25347;-83
2021/11/10 04:41:18;;;;;;;85.50;45.15;;;;;;;1.01;88.58;102171.05;1604238;87;25935;-83
2021/11/10 04:43:45;;;;;;;94.87;44.93;;;;;;;1.01;88.66;102170.59;1612235;87;25802;-83
2021/11/10 04:46:27;;;;;;;97.75;44.88;;;;;;;1.02;88.82;102171.45;1651036;86;25921;-83
2021/11/10 04:48:49;;;;;;;92.22;45.92;;;;;;;1.04;88.88;102167.80;1606876;87;27569;-83
2021/11/10 04:51:16;;;;;;;90.47;45.70;;;;;;;1.06;88.90;102162.42;1649458;86;26263;-83
2021/11/10 04:53:49;;;;;;;98.62;44.85;;;;;;;1.06;88.97;102155.83;1603374;86;26213;-83
2021/11/10 04:56:14;;;;;;;89.28;41.58;;;;;;;1.06;88.93;102151.41;1649176;86;26025;-83
2021/11/10 04:58:43;;;;;;;93.00;42.58;;;;;;;1.04;88.76;102143.19;1634411;86;25901;-83
2021/11/10 05:01:18;;;;;;;85.75;42.67;;;;;;;1.03;88.77;102144.11;1634357;86;27672;-83
2021/11/10 05:03:39;;;;;;;80.87;42.45;;;;;;;1.05;88.92;102144.91;1602389;86;25997;-83
2021/11/10 05:06:08;;;;;;;75.70;40.08;;;;;;;1.05;88.87;102147.55;1649979;86;25894;-83
2021/11/10 05:08:35;;;;;;;78.87;40.17;;;;;;;1.05;88.85;102143.59;1634759;86;25910;-83
2021/11/10 05:11:03;;;;;;;76.97;36.42;;;;;;;1.06;88.89;102143.95;1613116;86;25946;-83
2021/11/10 05:13:30;;;;;;;82.08;40.40;;;;;;;1.07;88.88;102142.53;1624637;86;28332;-83
2021/11/10 05:15:57;;;;;;;70.85;35.92;;;;;;;1.06;88.81;102138.21;1656391;85;25886;-82
2021/11/10 05:18:26;;;;;;;74.15;37.67;;;;;;;1.04;88.93;102137.91;1649512;85;25732;-83
2021/11/10 05:20:53;;;;;;;77.95;39.80;;;;;;;1.03;88.93;102129.60;1612729;86;26526;-82
2021/11/10 05:23:21;;;;;;;77.55;38.60;;;;;;;1.03;88.96;102127.83;1642722;85;25979;-83
2021/11/10 05:25:50;;;;;;;78.22;38.48;;;;;;;1.04;88.96;102133.95;1660756;85;27479;-82
2021/11/10 05:28:17;;;;;;;73.50;37.35;;;;;;;1.01;88.85;102131.02;1638152;85;25924;-83
2021/11/10 05:30:44;;;;;;;71.53;39.33;;;;;;;0.99;88.88;102124.98;1639191;86;26108;-83
2021/11/10 05:33:13;;;;;;;74.75;38.90;;;;;;;0.98;88.77;102129.89;1630069;86;25891;-85
2021/11/10 05:35:40;;;;;;;87.78;43.00;;;;;;;0.96;88.64;102128.28;1633262;86;25894;-83
2021/11/10 05:38:07;;;;;;;72.70;40.25;;;;;;;0.94;88.81;102130.98;1611531;86;28343;-83
2021/11/10 05:40:36;;;;;;;77.82;39.88;;;;;;;0.94;88.83;102127.52;1634564;84;26527;-83
2021/11/10 05:43:05;;;;;;;78.97;40.45;;;;;;;0.94;88.88;102131.48;1659058;85;25756;-83
2021/11/10 05:45:33;;;;;;;86.32;42.60;;;;;;;0.93;88.84;102130.62;1665845;86;25781;-82
2021/11/10 05:48:00;;;;;;;75.47;38.25;;;;;;;0.93;88.77;102129.30;1633180;85;25776;-82
2021/11/10 05:50:27;;;;;;;73.20;39.27;;;;;;;0.93;88.83;102131.94;1640688;86;27676;-83
2021/11/10 05:52:55;;;;;;;80.03;43.23;;;;;;;0.93;88.79;102138.53;1653747;85;25855;-82
2021/11/10 05:55:24;;;;;;;85.38;43.15;;;;;;;0.93;88.82;102141.17;1665832;86;25340;-83
2021/11/10 05:57:51;;;;;;;82.80;41.60;;;;;;;0.94;88.78;102140.71;1632918;85;26684;-84
2021/11/10 06:00:19;;;;;;;89.30;45.33;;;;;;;0.95;88.77;102141.08;1619037;86;26561;-82
2021/11/10 06:02:46;;;;;;;102.92;53.23;;;;;;;0.94;88.51;102143.34;1653589;85;27279;-83
2021/11/10 06:05:18;;;;;;;101.35;51.90;;;;;;;0.93;88.63;102142.95;1665901;86;25780;-83
2021/11/10 06:07:45;;;;;;;107.22;52.88;;;;;;;0.94;88.63;102142.85;1654923;85;25345;-83
2021/11/10 06:10:16;;;;;;;82.57;46.02;;;;;;;0.93;88.57;102143.81;1640952;86;25951;-83
2021/11/10 06:12:45;;;;;;;90.17;47.35;;;;;;;0.93;88.72;102145.13;1653788;85;25900;-83
2021/11/10 06:15:12;;;;;;;77.80;42.83;;;;;;;0.95;88.70;102142.39;1665982;86;27600;-83
2021/11/10 06:17:40;;;;;;;74.65;39.00;;;;;;;0.94;88.59;102143.34;1632649;85;25934;-82
2021/11/10 06:20:09;;;;;;;81.90;42.58;;;;;;;0.91;88.72;102141.73;1640853;86;25898;-83
2021/11/10 06:22:36;;;;;;;86.57;42.58;;;;;;;0.89;88.75;102142.29;1632755;85;25898;-83
2021/11/10 06:25:06;;;;;;;82.02;41.75;;;;;;;0.91;88.94;102141.73;1641170;86;26050;-83
2021/11/10 06:27:33;;;;;;;75.95;41.55;;;;;;;0.93;88.98;102145.13;1655332;85;27479;-83
2021/11/10 06:30:00;;;;;;;89.07;46.55;;;;;;;0.93;89.04;102138.99;1650298;85;25888;-83
2021/11/10 06:32:27;;;;;;;72.58;41.85;;;;;;;0.93;89.03;102138.99;1599471;88;26769;-82
2021/11/10 06:34:54;;;;;;;76.20;41.50;;;;;;;0.94;89.06;102141.53;1600008;88;25919;-83
2021/11/10 06:37:21;;;;;;;73.45;44.13;;;;;;;0.95;89.16;102138.44;1599606;88;25416;-83
2021/11/10 06:39:49;;;;;;;97.80;51.20;;;;;;;0.96;89.25;102138.83;1564277;87;27551;-83
2021/11/10 06:42:16;;;;;;;90.50;50.17;;;;;;;0.98;89.37;102148.36;1598579;87;26284;-83
2021/11/10 06:44:43;;;;;;;85.45;47.15;;;;;;;1.00;89.44;102147.81;1648027;87;25945;-82
2021/11/10 06:47:10;;;;;;;78.80;45.17;;;;;;;1.01;89.48;102154.77;1611104;87;26109;-83
2021/11/10 06:49:37;;;;;;;82.35;45.90;;;;;;;1.04;89.65;102151.97;1633552;86;25815;-83
2021/11/10 06:52:05;;;;;;;79.97;44.33;;;;;;;1.07;89.69;102156.22;1647904;86;27679;-83
2021/11/10 06:54:32;;;;;;;73.07;41.75;;;;;;;1.09;89.84;102155.66;1631838;86;25908;-82
2021/11/10 06:56:59;;;;;;;70.57;39.53;;;;;;;1.10;89.96;102156.88;1633011;86;25815;-83
2021/11/10 06:59:26;;;;;;;72.08;40.78;;;;;;;1.15;90.15;102164.54;1610316;87;25911;-83
2021/11/10 07:01:53;;;;;;;72.65;39.42;;;;;;;1.18;90.14;102162.56;1648008;87;25848;-82
2021/11/10 07:04:20;;;;;;;77.08;38.35;;;;;;;1.22;90.18;102160.61;1609757;87;27544;-82
2021/11/10 07:06:47;;;;;;;83.78;41.83;;;;;;;1.26;90.30;102168.23;1632618;86;25625;-83
2021/11/10 07:09:15;;;;;;;77.32;39.90;;;;;;;1.30;90.39;102165.83;1632869;87;25816;-83
2021/11/10 07:11:42;;;;;;;75.55;39.75;;;;;;;1.33;90.38;102164.31;1647961;87;26411;-83
2021/11/10 07:14:09;;;;;;;73.47;38.78;;;;;;;1.37;90.45;102154.41;1610038;87;25912;-83
2021/11/10 07:16:37;;;;;;;82.57;40.08;;;;;;;1.38;90.33;102156.13;1632703;86;28160;-83
2021/11/10 07:19:04;;;;;;;92.47;44.10;;;;;;;1.41;90.50;102159.92;1632774;87;25367;-83
2021/11/10 07:21:31;;;;;;;98.40;46.55;;;;;;;1.45;90.57;102158.80;1648026;86;25294;-83
2021/11/10 07:23:59;;;;;;;81.90;43.80;;;;;;;1.49;90.59;102154.56;1610324;87;26153;-82
2021/11/10 07:26:26;;;;;;;82.50;42.33;;;;;;;1.53;90.60;102154.77;1602141;87;25974;-83
2021/11/10 07:28:53;;;;;;;79.35;43.05;;;;;;;1.58;90.58;102156.27;1633113;87;28304;-82
2021/11/10 07:31:20;;;;;;;77.15;42.38;;;;;;;1.61;90.59;102156.93;1676463;85;25794;-83
2021/11/10 07:33:47;;;;;;;86.50;45.65;;;;;;;1.66;90.62;102154.02;1668651;83;26628;-83
2021/11/10 07:36:15;;;;;;;86.20;43.42;;;;;;;1.70;90.62;102145.82;1670435;84;26624;-83
2021/11/10 07:38:42;;;;;;;79.72;42.17;;;;;;;1.75;90.59;102146.41;1655555;85;25888;-83
2021/11/10 07:41:16;;;;;;;82.10;41.45;;;;;;;1.79;90.65;102141.77;1669729;84;27667;-83
2021/11/10 07:43:39;;;;;;;78.40;40.85;;;;;;;1.82;90.75;102137.14;1620031;85;26145;-83
2021/11/10 07:46:13;;;;;;;77.70;44.65;;;;;;;1.88;90.83;102135.94;1652254;84;25795;-83
2021/11/10 07:48:35;;;;;;;78.17;46.53;;;;;;;1.93;90.82;102136.02;1664890;85;26539;-83
2021/11/10 07:51:03;;;;;;;80.45;44.67;;;;;;;1.99;90.83;102129.53;1645203;85;26204;-83
2021/11/10 07:53:30;;;;;;;79.10;41.42;;;;;;;2.03;90.77;102137.14;1631301;85;27375;-83
2021/11/10 07:55:57;;;;;;;79.67;44.25;;;;;;;2.06;90.72;102136.11;1647983;85;25951;-83
2021/11/10 07:58:24;;;;;;;73.42;42.88;;;;;;;2.07;90.85;102145.75;1628742;86;25964;-82
2021/11/10 08:00:51;;;;;;;72.55;40.45;;;;;;;2.11;90.96;102152.08;1661525;86;25985;-83
2021/11/10 08:03:18;;;;;;;79.92;41.75;;;;;;;2.15;91.07;102137.73;1609628;86;26022;-83
2021/11/10 08:05:45;;;;;;;76.92;42.00;;;;;;;2.21;91.23;102145.73;1633534;85;27534;-83
2021/11/10 08:08:12;;;;;;;78.10;40.83;;;;;;;2.25;91.21;102148.56;1651391;85;25851;-83
2021/11/10 08:10:40;;;;;;;75.00;42.48;;;;;;;2.29;91.34;102139.02;1665511;86;26288;-83
2021/11/10 08:13:07;;;;;;;75.87;42.95;;;;;;;2.35;91.47;102135.16;1607748;86;26352;-83
2021/11/10 08:15:35;;;;;;;73.62;41.15;;;;;;;2.41;91.48;102125.98;1626257;86;25977;-83
2021/11/10 08:18:04;;;;;;;80.70;42.00;;;;;;;2.46;91.54;102123.90;1655186;86;27636;-83
2021/11/10 08:20:31;;;;;;;83.20;44.80;;;;;;;2.52;91.65;102122.19;1664941;85;25904;-83
2021/11/10 08:22:58;;;;;;;76.80;42.10;;;;;;;2.58;91.68;102126.61;1589419;85;25923;-83
2021/11/10 08:25:25;;;;;;;75.37;42.67;;;;;;;2.63;91.86;102128.47;1644353;85;25861;-82
2021/11/10 08:27:54;;;;;;;74.58;41.18;;;;;;;2.69;91.94;102133.85;1666718;84;25833;-82
2021/11/10 08:30:21;;;;;;;78.22;40.70;;;;;;;2.73;91.88;102134.02;1659825;85;27467;-83
2021/11/10 08:32:51;;;;;;;74.40;41.13;;;;;;;2.78;91.86;102133.27;1624694;86;26008;-82
2021/11/10 08:35:18;;;;;;;78.30;43.03;;;;;;;2.84;91.91;102127.57;1636577;86;25877;-83
2021/11/10 08:37:46;;;;;;;69.12;38.25;;;;;;;2.88;92.03;102123.30;1635939;85;25929;-83
2021/11/10 08:40:13;;;;;;;66.33;38.40;;;;;;;2.93;92.14;102129.63;1652305;85;25914;-83
2021/11/10 08:42:40;;;;;;;75.90;41.73;;;;;;;2.97;92.10;102121.34;1622205;85;26919;-82
2021/11/10 08:45:12;;;;;;;75.50;42.78;;;;;;;3.03;92.27;102118.33;1667184;84;25939;-83
2021/11/10 08:47:42;;;;;;;68.65;40.23;;;;;;;3.10;92.52;102118.27;1651557;84;25823;-83
2021/11/10 08:50:13;;;;;;;74.60;41.28;;;;;;;3.18;92.50;102117.77;1672145;84;26549;-82
2021/11/10 08:52:42;;;;;;;76.60;40.90;;;;;;;3.23;92.55;102117.47;1615803;84;26079;-83
2021/11/10 08:55:10;;;;;;;73.65;41.20;;;;;;;3.30;92.67;102106.81;1660644;84;27927;-83
2021/11/10 08:57:41;;;;;;;79.87;44.83;;;;;;;3.38;92.80;102111.97;1652796;85;25908;-82
2021/11/10 09:00:13;;;;;;;80.28;42.43;;;;;;;3.47;92.92;102106.52;1653200;85;25896;-82
2021/11/10 09:02:40;;;;;;;77.45;41.48;;;;;;;3.53;92.96;102106.95;1669400;84;25697;-83
2021/11/10 09:05:09;;;;;;;73.95;42.55;;;;;;;3.62;93.02;102096.20;1637843;84;25907;-83
2021/11/10 09:07:37;;;;;;;73.95;40.43;;;;;;;3.69;93.10;102090.86;1655269;84;27600;-83
2021/11/10 09:10:08;;;;;;;72.75;40.67;;;;;;;3.78;93.34;102091.55;1684342;84;25899;-83
2021/11/10 09:12:35;;;;;;;73.70;41.20;;;;;;;3.85;93.48;102095.45;1629261;86;25828;-83
2021/11/10 09:15:03;;;;;;;74.58;42.15;;;;;;;3.94;93.62;102085.53;1645040;85;25865;-83
2021/11/10 09:17:34;;;;;;;70.28;40.70;;;;;;;4.01;93.69;102080.17;1654911;85;26452;-82
2021/11/10 09:19:59;;;;;;;76.00;40.70;;;;;;;4.10;93.76;102080.86;1664208;85;28349;-86
2021/11/10 09:22:27;;;;;;;71.25;39.80;;;;;;;4.20;94.23;102078.38;1620899;85;25743;-85
2021/11/10 09:24:54;;;;;;;70.83;40.20;;;;;;;4.30;94.21;102071.48;1685992;84;26153;-83
2021/11/10 09:27:21;;;;;;;67.30;37.80;;;;;;;4.37;94.08;102074.89;1651730;84;25910;-83
2021/11/10 09:29:48;;;;;;;68.20;38.50;;;;;;;4.47;94.08;102075.08;1676225;84;25796;-83
2021/11/10 09:32:16;;;;;;;65.35;37.50;;;;;;;4.56;94.21;102067.75;1606588;85;27595;-83
2021/11/10 09:34:43;;;;;;;64.20;37.70;;;;;;;4.65;94.27;102066.61;1655521;85;25810;-83
2021/11/10 09:37:11;;;;;;;71.77;40.20;;;;;;;4.74;94.16;102059.77;1640103;85;26113;-82
2021/11/10 09:39:38;;;;;;;68.55;40.75;;;;;;;4.82;94.26;102056.53;1655452;86;26601;-83
2021/11/10 09:42:06;;;;;;;67.10;37.80;;;;;;;4.91;94.33;102056.71;1632471;85;26533;-83
2021/11/10 09:44:34;;;;;;;71.30;39.23;;;;;;;5.00;94.55;102047.20;1636779;86;28255;-83
2021/11/10 09:47:04;;;;;;;65.35;39.23;;;;;;;5.08;94.52;102048.32;1631548;86;25876;-83
2021/11/10 09:49:31;;;;;;;67.45;38.70;;;;;;;5.17;94.49;102042.79;1662016;85;26526;-83
2021/11/10 09:52:00;;;;;;;62.03;36.35;;;;;;;5.26;94.67;102045.58;1581380;86;26670;-83
2021/11/10 09:54:27;;;;;;;61.42;34.53;;;;;;;5.35;94.73;102042.22;1620287;85;25813;-83
2021/11/10 09:56:55;;;;;;;57.23;33.78;;;;;;;5.45;94.80;102039.71;1641333;86;27558;-83
2021/11/10 09:59:24;;;;;;;53.90;32.70;;;;;;;5.54;94.91;102042.14;1666639;85;26555;-83
2021/11/10 10:01:51;;;;;;;52.88;31.97;;;;;;;5.64;94.88;102041.77;1623935;85;25863;-83
2021/11/10 10:04:19;;;;;;;49.73;30.82;;;;;;;5.73;94.76;102036.56;1643229;86;26652;-83
2021/11/10 10:06:46;;;;;;;52.30;31.17;;;;;;;5.82;94.60;102037.18;1619164;86;25950;-83
2021/11/10 10:09:13;;;;;;;48.40;28.52;;;;;;;5.91;94.56;102036.97;1667344;85;27445;-83
2021/11/10 10:11:40;;;;;;;57.50;33.30;;;;;;;6.00;94.73;102038.42;1626117;86;26050;-82
2021/11/10 10:14:07;;;;;;;54.08;31.50;;;;;;;6.09;94.67;102027.02;1659378;85;25852;-83
2021/11/10 10:16:36;;;;;;;50.98;31.27;;;;;;;6.17;94.28;102027.75;1638672;85;25815;-83
2021/11/10 10:19:12;;;;;;;49.23;27.02;;;;;;;6.28;94.24;102028.22;1664706;85;26772;-83
2021/11/10 10:21:42;;;;;;;48.33;27.13;;;;;;;6.37;94.32;102023.01;1662356;85;27586;-83
2021/11/10 10:24:13;;;;;;;44.42;26.80;;;;;;;6.46;94.22;102022.23;1615940;86;26313;-84
2021/11/10 10:26:41;;;;;;;44.05;26.65;;;;;;;6.55;93.90;102018.82;1670153;85;25991;-83
2021/11/10 10:29:11;;;;;;;48.75;26.07;;;;;;;6.63;93.77;102012.88;1633327;86;25971;-83
2021/11/10 10:31:41;;;;;;;45.35;25.55;;;;;;;6.75;94.04;102014.52;1643016;86;25902;-83
2021/11/10 10:34:12;;;;;;;46.73;27.70;;;;;;;6.85;93.78;102010.09;1607351;86;27384;-83
2021/11/10 10:36:42;;;;;;;;;;;;;;;6.94;93.55;102009.34;1665219;85;25860;-83
2021/11/10 10:39:18;;;;;;;39.78;23.40;;;;;;;6.99;93.23;102000.48;1631819;85;26512;-83
2021/11/10 10:41:51;;;;;;;41.37;23.70;;;;;;;7.04;92.99;101998.25;1657928;85;25885;-83
2021/11/10 10:44:22;;;;;;;36.93;21.85;;;;;;;7.12;92.56;101992.29;1686021;84;26492;-82
2021/11/10 10:47:03;;;;;;;31.60;18.52;;;;;;;7.21;92.59;101991.48;1659583;86;27604;-83
2021/11/10 10:49:33;;;;;;;33.40;18.73;;;;;;;7.28;92.03;101988.66;1622762;85;25817;-83
2021/11/10 10:52:14;;;;;;;28.05;17.55;;;;;;;7.37;91.71;101984.73;1629899;85;25979;-85
2021/11/10 10:54:43;;;;;;;31.10;18.55;;;;;;;7.45;91.25;101973.38;1659148;85;25860;-83
2021/11/10 10:57:11;;;;;;;30.97;17.87;;;;;;;7.52;91.07;101973.22;1663583;86;25886;-83
2021/11/10 10:59:38;;;;;;;25.15;16.30;;;;;;;7.60;90.90;101977.38;1610640;86;28341;-83
2021/11/10 11:02:07;;;;;;;27.58;17.87;;;;;;;7.66;90.86;101975.02;1604502;86;25866;-83
2021/11/10 11:04:43;;;;;;;32.55;18.12;;;;;;;7.73;90.51;101965.52;1663271;85;26549;-83
2021/11/10 11:07:12;;;;;;;27.67;17.65;;;;;;;7.81;90.18;101971.48;1643307;85;25881;-83
2021/11/10 11:09:53;;;;;;;26.77;16.87;;;;;;;7.86;89.97;101966.61;1631629;86;25937;-83
2021/11/10 11:12:29;;;;;;;;;;;;;;;7.93;89.88;101961.56;1619315;85;27401;-83
2021/11/10 11:15:25;;;;;;;26.25;15.13;;;;;;;8.00;89.56;101962.72;1664345;85;25785;-83
2021/11/10 11:17:48;;;;;;;25.40;15.93;;;;;;;8.06;89.49;101958.98;1653059;85;25367;-83
2021/11/10 11:20:31;;;;;;;26.62;15.68;;;;;;;8.12;89.32;101950.94;1637327;85;25909;-83
2021/11/10 11:23:01;;;;;;;23.75;15.23;;;;;;;8.20;89.15;101939.07;1631247;85;26639;-83